createdAt,value
2024-02-28T00:01:34.362Z,73.80
2024-02-28T00:04:02.718Z,75.14
2024-02-28T00:06:31.433Z,75.37
2024-02-28T00:09:00.093Z,76.26
2024-02-28T00:11:28.924Z,75.10
2024-02-28T00:13:57.248Z,74.51
2024-02-28T00:16:25.325Z,74.20
2024-02-28T00:18:53.710Z,74.15
2024-02-28T00:21:22.251Z,73.93
2024-02-28T00:23:50.652Z,73.67
2024-02-28T00:26:18.830Z,74.01
2024-02-28T00:28:46.944Z,74.62
2024-02-28T00:31:15.175Z,74.24
2024-02-28T00:33:43.351Z,75.56
2024-02-28T00:36:11.878Z,75.47
2024-02-28T00:38:40.429Z,74.96
2024-02-28T00:41:09.043Z,75.68
2024-02-28T00:43:37.134Z,74.31
2024-02-28T00:46:05.682Z,76.68
2024-02-28T00:48:33.890Z,77.72
2024-02-28T00:51:02.082Z,76.78
2024-02-28T00:53:30.257Z,76.58
2024-02-28T00:55:58.554Z,77.46
2024-02-28T00:58:29.190Z,77.65
2024-02-28T01:00:58.811Z,77.11
2024-02-28T01:03:27.310Z,77.94
2024-02-28T01:05:55.650Z,78.67
2024-02-28T01:08:23.920Z,78.70
2024-02-28T01:10:52.103Z,78.25
2024-02-28T01:13:20.352Z,78.26
2024-02-28T01:15:48.581Z,77.86
2024-02-28T01:18:17.185Z,77.85
2024-02-28T01:20:45.915Z,77.45
2024-02-28T01:23:14.063Z,78.47
2024-02-28T01:25:42.363Z,79.17
2024-02-28T01:28:10.635Z,79.55
2024-02-28T01:30:38.942Z,78.81
2024-02-28T01:33:07.531Z,79.34
2024-02-28T01:35:35.701Z,78.45
2024-02-28T01:38:04.058Z,80.22
2024-02-28T01:40:32.216Z,79.83
2024-02-28T01:43:09.818Z,81.98
2024-02-28T01:45:37.982Z,81.35
2024-02-28T01:48:11.477Z,80.36
2024-02-28T01:50:40.455Z,80.30
2024-02-28T01:53:10.543Z,79.30
2024-02-28T01:55:39.606Z,79.92
2024-02-28T01:58:08.276Z,80.93
2024-02-28T02:00:38.764Z,80.89
2024-02-28T02:03:07.411Z,81.37
2024-02-28T02:05:35.673Z,80.80
2024-02-28T02:08:04.227Z,80.53
2024-02-28T02:10:32.703Z,80.03
2024-02-28T02:13:08.022Z,80.33
2024-02-28T02:15:36.301Z,80.07
2024-02-28T02:18:04.872Z,79.56
2024-02-28T02:20:36.998Z,79.26
2024-02-28T02:23:05.485Z,79.21
2024-02-28T02:25:33.762Z,79.41
2024-02-28T02:28:01.885Z,79.87
2024-02-28T02:30:30.255Z,81.47
2024-02-28T02:32:58.544Z,81.53
2024-02-28T02:35:26.662Z,81.28
2024-02-28T02:37:54.759Z,81.63
2024-02-28T02:40:24.269Z,82.36
2024-02-28T02:42:52.428Z,82.13
2024-02-28T02:45:20.912Z,82.43
2024-02-28T02:47:49.111Z,82.44
2024-02-28T02:50:17.438Z,81.77
2024-02-28T02:52:45.714Z,82.31
2024-02-28T02:55:13.998Z,82.67
2024-02-28T02:57:42.505Z,82.18
2024-02-28T03:00:11.690Z,84.02
2024-02-28T03:02:41.110Z,82.76
2024-02-28T03:05:10.193Z,82.05
2024-02-28T03:07:38.436Z,82.50
2024-02-28T03:10:07.791Z,83.73
2024-02-28T03:12:36.689Z,83.68
2024-02-28T03:15:05.179Z,83.74
2024-02-28T03:17:33.492Z,83.81
2024-02-28T03:20:01.647Z,84.51
2024-02-28T03:22:30.063Z,84.26
2024-02-28T03:24:58.235Z,83.92
2024-02-28T03:27:26.496Z,83.31
2024-02-28T03:29:54.668Z,83.00
2024-02-28T03:32:22.938Z,83.66
2024-02-28T03:34:51.178Z,83.18
2024-02-28T03:37:19.392Z,83.08
2024-02-28T03:39:47.711Z,83.58
2024-02-28T03:42:16.088Z,85.16
2024-02-28T03:44:44.933Z,85.34
2024-02-28T03:47:13.204Z,84.59
2024-02-28T03:49:41.323Z,84.82
2024-02-28T03:52:09.599Z,84.32
2024-02-28T03:54:37.985Z,84.17
2024-02-28T03:57:06.271Z,84.85
2024-02-28T03:59:34.467Z,85.07
2024-02-28T04:02:02.698Z,85.54
2024-02-28T04:04:30.816Z,85.09
2024-02-28T04:06:59.058Z,84.57
2024-02-28T04:09:27.517Z,84.69
2024-02-28T04:11:55.694Z,85.45
2024-02-28T04:14:23.822Z,85.30
2024-02-28T04:16:52.033Z,86.17
2024-02-28T04:19:20.158Z,86.16
2024-02-28T04:21:48.423Z,86.49
2024-02-28T04:24:17.941Z,85.35
2024-02-28T04:26:46.344Z,85.57
2024-02-28T04:29:15.776Z,85.94
2024-02-28T04:31:44.058Z,85.53
2024-02-28T04:34:12.162Z,85.52
2024-02-28T04:36:40.611Z,85.93
2024-02-28T04:39:09.208Z,85.90
2024-02-28T04:41:37.644Z,85.06
2024-02-28T04:44:05.889Z,86.37
2024-02-28T04:46:35.914Z,86.43
2024-02-28T04:49:04.181Z,86.11
2024-02-28T04:51:32.430Z,85.84
2024-02-28T04:54:00.642Z,85.39
2024-02-28T04:56:29.052Z,86.11
2024-02-28T04:58:57.931Z,85.83
2024-02-28T05:01:26.170Z,85.62
2024-02-28T05:03:54.511Z,85.72
2024-02-28T05:06:22.888Z,85.04
2024-02-28T05:08:51.157Z,87.09
2024-02-28T05:11:19.476Z,88.27
2024-02-28T05:13:47.881Z,89.14
2024-02-28T05:16:17.483Z,87.57
2024-02-28T05:18:46.437Z,86.69
2024-02-28T05:21:15.366Z,85.92
2024-02-28T05:23:43.809Z,85.77
2024-02-28T05:26:11.956Z,85.02
2024-02-28T05:28:40.689Z,86.04
2024-02-28T05:31:26.303Z,84.47
2024-02-28T05:33:57.922Z,83.26
2024-02-28T05:36:28.549Z,81.54
2024-02-28T05:38:58.845Z,80.87
2024-02-28T05:41:27.091Z,78.92
2024-02-28T05:43:55.265Z,74.98
2024-02-28T05:46:23.746Z,73.14
2024-02-28T05:48:52.076Z,71.75
2024-02-28T05:51:20.938Z,68.48
2024-02-28T05:53:49.289Z,64.07
2024-02-28T05:56:21.333Z,62.58
2024-02-28T05:58:50.216Z,59.96
2024-02-28T06:01:20.046Z,57.32
2024-02-28T06:03:52.192Z,54.45
2024-02-28T06:06:20.501Z,53.10
2024-02-28T06:08:48.795Z,50.32
2024-02-28T06:11:17.946Z,49.89
2024-02-28T06:13:46.159Z,48.72
2024-02-28T06:16:19.343Z,46.44
2024-02-28T06:18:47.713Z,45.13
2024-02-28T06:21:16.192Z,44.48
2024-02-28T06:23:44.599Z,43.33
2024-02-28T06:26:18.089Z,44.22
2024-02-28T06:28:47.175Z,41.25
2024-02-28T06:31:19.074Z,41.63
2024-02-28T06:33:47.445Z,39.47
2024-02-28T06:36:15.885Z,38.82
2024-02-28T06:38:44.280Z,37.52
2024-02-28T06:41:12.479Z,37.28
2024-02-28T06:43:40.787Z,36.49
2024-02-28T06:46:09.130Z,35.37
2024-02-28T06:48:37.374Z,35.26
2024-02-28T06:51:05.751Z,34.61
2024-02-28T06:53:33.982Z,35.24
2024-02-28T06:56:04.078Z,36.29
2024-02-28T06:58:32.357Z,35.13
2024-02-28T07:01:02.630Z,35.71
2024-02-28T07:03:31.335Z,34.59
2024-02-28T07:06:00.095Z,35.35
2024-02-28T07:08:28.388Z,35.45
2024-02-28T07:10:56.552Z,34.79
2024-02-28T07:13:25.222Z,35.70
2024-02-28T07:15:55.782Z,35.75
2024-02-28T07:18:27.049Z,36.01
2024-02-28T07:20:55.882Z,35.53
2024-02-28T07:23:24.014Z,34.31
2024-02-28T07:25:52.294Z,33.33
2024-02-28T07:28:20.418Z,34.43
2024-02-28T07:30:49.743Z,34.02
2024-02-28T07:33:18.267Z,34.57
2024-02-28T07:35:51.244Z,34.13
2024-02-28T07:38:22.432Z,33.84
2024-02-28T07:40:51.219Z,33.28
2024-02-28T07:43:19.378Z,33.84
2024-02-28T07:45:47.575Z,33.44
2024-02-28T07:48:16.188Z,33.11
2024-02-28T07:50:46.042Z,33.35
2024-02-28T07:53:14.652Z,32.98
2024-02-28T07:55:43.015Z,32.73
2024-02-28T07:58:11.195Z,32.27
2024-02-28T08:00:39.562Z,32.36
2024-02-28T08:03:08.599Z,33.25
2024-02-28T08:05:40.501Z,33.06
2024-02-28T08:08:09.279Z,32.93
2024-02-28T08:10:39.313Z,33.42
2024-02-28T08:13:09.056Z,33.59
2024-02-28T08:15:37.270Z,33.08
2024-02-28T08:18:05.678Z,33.87
2024-02-28T08:20:34.099Z,33.03
2024-02-28T08:23:02.360Z,33.83
2024-02-28T08:25:30.559Z,32.68
2024-02-28T08:27:58.872Z,32.73
2024-02-28T08:30:27.086Z,33.01
2024-02-28T08:32:55.405Z,32.99
2024-02-28T08:35:25.182Z,32.25
2024-02-28T08:37:54.277Z,33.06
2024-02-28T08:40:22.956Z,32.07
2024-02-28T08:42:54.679Z,32.69
2024-02-28T08:45:24.175Z,33.85
2024-02-28T08:47:53.201Z,33.54
2024-02-28T08:50:21.510Z,34.95
2024-02-28T08:52:49.668Z,36.91
2024-02-28T08:55:20.055Z,35.51
2024-02-28T08:57:48.328Z,35.54
2024-02-28T09:00:16.933Z,37.21
2024-02-28T09:02:45.708Z,36.72
2024-02-28T09:05:14.028Z,33.33
2024-02-28T09:07:42.189Z,33.25
2024-02-28T09:10:10.869Z,34.76
2024-02-28T09:12:39.468Z,34.49
2024-02-28T09:15:08.237Z,33.80
2024-02-28T09:17:36.588Z,34.25
2024-02-28T09:20:07.976Z,34.40
2024-02-28T09:22:36.689Z,34.37
2024-02-28T09:25:05.680Z,34.76
2024-02-28T09:27:34.459Z,34.90
2024-02-28T09:30:03.991Z,37.12
2024-02-28T09:32:32.320Z,36.31
2024-02-28T09:35:00.666Z,37.69
2024-02-28T09:37:30.421Z,38.43
2024-02-28T09:39:59.797Z,40.26
2024-02-28T09:42:29.427Z,39.99
2024-02-28T09:45:02.367Z,40.74
2024-02-28T09:47:31.473Z,40.33
2024-02-28T09:50:00.044Z,41.79
2024-02-28T09:52:31.366Z,42.05
2024-02-28T09:54:59.655Z,42.59
2024-02-28T09:57:30.086Z,42.18
2024-02-28T10:00:01.734Z,41.79
2024-02-28T10:02:35.243Z,41.91
2024-02-28T10:05:06.092Z,42.93
2024-02-28T10:07:34.255Z,41.81
2024-02-28T10:10:02.495Z,41.98
2024-02-28T10:12:30.735Z,40.85
2024-02-28T10:15:01.757Z,40.51
2024-02-28T10:17:30.379Z,40.15
2024-02-28T10:20:00.748Z,39.84
2024-02-28T10:22:29.121Z,40.30
2024-02-28T10:25:02.188Z,40.97
2024-02-28T10:27:33.815Z,41.78
2024-02-28T10:30:06.075Z,41.98
2024-02-28T10:32:37.532Z,42.18
2024-02-28T10:35:11.114Z,42.32
2024-02-28T10:37:41.562Z,42.35
2024-02-28T10:40:11.680Z,42.14
2024-02-28T10:42:43.757Z,42.85
2024-02-28T10:45:21.077Z,43.51
2024-02-28T10:47:58.410Z,44.61
2024-02-28T10:50:26.631Z,45.69
2024-02-28T10:53:02.028Z,45.68
2024-02-28T10:55:41.652Z,46.25
2024-02-28T10:58:14.147Z,47.35
2024-02-28T11:00:48.442Z,47.45
2024-02-28T11:03:18.962Z,47.82
2024-02-28T11:05:47.806Z,47.22
2024-02-28T11:08:24.104Z,47.94
2024-02-28T11:10:57.275Z,48.44
2024-02-28T11:13:27.510Z,49.44
2024-02-28T11:15:58.970Z,48.64
2024-02-28T11:18:27.212Z,49.33
2024-02-28T11:20:56.374Z,49.65
2024-02-28T11:23:25.226Z,50.25
2024-02-28T11:25:54.447Z,49.74
2024-02-28T11:28:25.481Z,50.16
2024-02-28T11:30:53.774Z,50.85
2024-02-28T11:33:22.198Z,51.27
2024-02-28T11:35:58.633Z,51.14
2024-02-28T11:38:27.858Z,51.09
2024-02-28T11:40:56.883Z,51.00
2024-02-28T11:43:26.988Z,52.34
2024-02-28T11:45:56.793Z,51.94
2024-02-28T11:48:27.011Z,52.32
2024-02-28T11:50:55.983Z,52.22
2024-02-28T11:53:28.041Z,52.30
2024-02-28T11:55:57.020Z,52.58
2024-02-28T11:58:25.188Z,52.81
2024-02-28T12:00:53.793Z,53.62
2024-02-28T12:03:26.300Z,53.38
2024-02-28T12:05:56.277Z,53.66
2024-02-28T12:08:26.692Z,53.81
2024-02-28T12:10:56.879Z,54.52
2024-02-28T12:13:25.063Z,54.03
2024-02-28T12:15:53.206Z,54.11
2024-02-28T12:18:21.445Z,54.27
2024-02-28T12:20:51.357Z,54.33
2024-02-28T12:23:19.843Z,54.70
2024-02-28T12:25:48.250Z,55.63
2024-02-28T12:28:17.087Z,55.51
2024-02-28T12:30:45.679Z,55.35
2024-02-28T12:33:14.056Z,56.01
2024-02-28T12:35:43.748Z,55.77
2024-02-28T12:38:12.329Z,56.01
2024-02-28T12:40:40.747Z,55.68
2024-02-28T12:43:10.120Z,56.33
2024-02-28T12:45:38.841Z,56.63
2024-02-28T12:48:08.376Z,56.51
2024-02-28T12:50:37.100Z,56.46
2024-02-28T12:53:05.565Z,56.72
2024-02-28T12:55:33.776Z,56.21
2024-02-28T12:58:06.034Z,55.80
2024-02-28T13:00:34.713Z,55.73
2024-02-28T13:03:04.610Z,55.82
2024-02-28T13:05:33.284Z,56.37
2024-02-28T13:08:02.463Z,55.88
2024-02-28T13:10:31.721Z,55.82
2024-02-28T13:13:00.002Z,55.91
2024-02-28T13:15:28.412Z,55.95
2024-02-28T13:17:56.869Z,56.12
2024-02-28T13:20:25.784Z,56.15
2024-02-28T13:22:54.867Z,56.11
2024-02-28T13:25:23.274Z,56.20
2024-02-28T13:27:51.735Z,56.37
2024-02-28T13:30:20.657Z,56.53
2024-02-28T13:32:50.425Z,56.53
2024-02-28T13:35:19.005Z,56.71
2024-02-28T13:37:47.292Z,56.70
2024-02-28T13:40:15.678Z,56.94
2024-02-28T13:42:44.222Z,57.46
2024-02-28T13:45:13.163Z,57.31
2024-02-28T13:47:41.421Z,57.24
2024-02-28T13:50:11.107Z,57.62
2024-02-28T13:52:39.212Z,57.36
2024-02-28T13:55:09.562Z,57.26
2024-02-28T13:57:37.787Z,57.32
2024-02-28T14:00:08.144Z,57.67
2024-02-28T14:02:39.345Z,58.54
2024-02-28T14:05:09.027Z,58.17
2024-02-28T14:07:38.439Z,58.05
2024-02-28T14:10:06.978Z,57.91
2024-02-28T14:12:35.160Z,58.12
2024-02-28T14:15:03.969Z,57.99
2024-02-28T14:17:33.037Z,59.06
2024-02-28T14:20:01.676Z,58.13
2024-02-28T14:22:29.854Z,58.48
2024-02-28T14:24:58.065Z,58.51
2024-02-28T14:27:31.423Z,59.42
2024-02-28T14:29:59.780Z,58.80
2024-02-28T14:32:27.965Z,59.26
2024-02-28T14:34:56.172Z,59.29
2024-02-28T14:37:24.414Z,59.07
2024-02-28T14:39:52.943Z,59.60
2024-02-28T14:42:21.363Z,59.91
2024-02-28T14:44:49.498Z,60.21
2024-02-28T14:47:17.667Z,60.23
2024-02-28T14:49:45.805Z,60.53
2024-02-28T14:52:14.983Z,60.27
2024-02-28T14:54:45.630Z,60.77
2024-02-28T14:57:14.908Z,61.63
2024-02-28T14:59:43.585Z,61.12
2024-02-28T15:02:13.034Z,61.50
2024-02-28T15:04:41.241Z,61.58
2024-02-28T15:07:09.636Z,62.13
2024-02-28T15:09:40.915Z,62.05
2024-02-28T15:12:10.205Z,61.09
2024-02-28T15:14:38.420Z,61.18
2024-02-28T15:17:06.634Z,61.04
2024-02-28T15:19:35.018Z,61.48
2024-02-28T15:22:03.225Z,61.42
2024-02-28T15:24:31.633Z,61.43
2024-02-28T15:27:00.483Z,62.03
2024-02-28T15:29:29.977Z,62.02
2024-02-28T15:31:58.087Z,61.94
2024-02-28T15:34:26.240Z,62.77
2024-02-28T15:36:54.569Z,62.14
2024-02-28T15:39:22.994Z,62.10
2024-02-28T15:41:53.299Z,62.12
2024-02-28T15:44:21.503Z,62.30
2024-02-28T15:46:49.713Z,62.50
2024-02-28T15:49:24.775Z,63.53
2024-02-28T15:51:57.533Z,63.08
2024-02-28T15:54:25.908Z,63.49
2024-02-28T15:56:54.190Z,65.05
2024-02-28T15:59:22.522Z,64.30
2024-02-28T16:01:51.124Z,64.14
2024-02-28T16:04:19.331Z,64.68
2024-02-28T16:06:47.618Z,64.71
2024-02-28T16:09:16.360Z,64.50
2024-02-28T16:11:45.086Z,64.83
2024-02-28T16:14:14.846Z,65.24
2024-02-28T16:16:43.088Z,66.33
2024-02-28T16:19:18.147Z,66.28
2024-02-28T16:21:53.324Z,66.16
2024-02-28T16:24:21.721Z,66.29
2024-02-28T16:26:50.104Z,67.37
2024-02-28T16:29:18.351Z,69.07
2024-02-28T16:31:50.567Z,67.55
2024-02-28T16:34:20.932Z,68.74
2024-02-28T16:36:49.757Z,67.99
2024-02-28T16:39:20.534Z,68.60
2024-02-28T16:41:48.800Z,68.05
2024-02-28T16:44:17.054Z,67.97
2024-02-28T16:46:45.313Z,68.75
2024-02-28T16:49:13.518Z,68.42
2024-02-28T16:51:43.132Z,67.86
2024-02-28T16:54:13.434Z,68.95
2024-02-28T16:56:41.721Z,69.53
2024-02-28T16:59:11.155Z,69.81
2024-02-28T17:01:39.463Z,70.94
2024-02-28T17:04:07.932Z,71.99
2024-02-28T17:06:36.479Z,71.93
2024-02-28T17:09:04.827Z,72.06
2024-02-28T17:11:32.985Z,73.24
2024-02-28T17:14:01.676Z,73.70
2024-02-28T17:16:29.990Z,74.60
2024-02-28T17:18:58.587Z,75.38
2024-02-28T17:21:26.820Z,75.30
2024-02-28T17:23:55.055Z,74.19
2024-02-28T17:26:23.423Z,73.56
2024-02-28T17:28:51.962Z,74.32
2024-02-28T17:31:20.242Z,74.72
2024-02-28T17:33:49.066Z,74.50
2024-02-28T17:36:18.843Z,74.04
2024-02-28T17:38:47.314Z,74.00
2024-02-28T17:41:17.069Z,75.55
2024-02-28T17:43:46.166Z,77.13
2024-02-28T17:46:17.324Z,77.43
2024-02-28T17:48:45.790Z,78.36
2024-02-28T17:51:14.139Z,77.73
2024-02-28T17:53:43.725Z,77.19
2024-02-28T17:56:12.840Z,78.36
2024-02-28T17:58:41.315Z,77.22
2024-02-28T18:01:09.554Z,77.45
2024-02-28T18:03:37.985Z,77.94
2024-02-28T18:06:06.200Z,76.90
2024-02-28T18:08:35.536Z,77.35
2024-02-28T18:11:05.610Z,77.35
2024-02-28T18:13:34.433Z,77.49
2024-02-28T18:16:02.712Z,78.39
2024-02-28T18:18:34.096Z,79.10
2024-02-28T18:21:02.472Z,80.03
2024-02-28T18:23:34.720Z,79.60
2024-02-28T18:26:04.443Z,78.91
2024-02-28T18:28:38.004Z,78.63
2024-02-28T18:31:09.274Z,79.75
2024-02-28T18:33:37.735Z,79.89
2024-02-28T18:36:06.328Z,80.05
2024-02-28T18:38:34.562Z,79.63
2024-02-28T18:41:03.195Z,80.74
2024-02-28T18:43:32.285Z,81.55
2024-02-28T18:46:03.005Z,81.93
2024-02-28T18:48:31.296Z,81.92
2024-02-28T18:50:59.460Z,81.14
2024-02-28T18:53:27.945Z,80.82
2024-02-28T18:55:56.070Z,81.91
2024-02-28T18:58:24.242Z,81.64
2024-02-28T19:00:52.952Z,80.67
2024-02-28T19:03:21.464Z,80.45
2024-02-28T19:05:49.936Z,81.88
2024-02-28T19:08:18.427Z,81.33
2024-02-28T19:10:46.802Z,80.78
2024-02-28T19:13:14.995Z,79.91
2024-02-28T19:15:43.317Z,80.51
2024-02-28T19:18:11.511Z,81.00
2024-02-28T19:20:39.765Z,81.40
2024-02-28T19:23:08.025Z,80.89
2024-02-28T19:25:36.206Z,80.76
2024-02-28T19:28:04.945Z,81.46
2024-02-28T19:30:33.250Z,81.57
2024-02-28T19:33:01.720Z,81.15
2024-02-28T19:35:30.167Z,82.32
2024-02-28T19:37:58.632Z,82.27
2024-02-28T19:40:26.956Z,83.14
2024-02-28T19:42:56.949Z,82.90
2024-02-28T19:45:25.268Z,84.07
2024-02-28T19:47:53.583Z,85.53
2024-02-28T19:50:25.066Z,83.31
2024-02-28T19:52:53.544Z,82.34
2024-02-28T19:55:23.237Z,83.76
2024-02-28T19:57:51.449Z,84.05
2024-02-28T20:00:20.728Z,83.91
2024-02-28T20:02:49.312Z,83.92
2024-02-28T20:05:20.316Z,83.06
2024-02-28T20:07:50.683Z,84.59
2024-02-28T20:10:19.430Z,85.21
2024-02-28T20:12:48.176Z,83.72
2024-02-28T20:15:16.327Z,84.28
2024-02-28T20:17:44.542Z,85.57
2024-02-28T20:20:12.841Z,87.48
2024-02-28T20:22:43.185Z,87.43
2024-02-28T20:25:11.667Z,86.03
2024-02-28T20:27:39.890Z,85.52
2024-02-28T20:30:08.909Z,86.84
2024-02-28T20:32:37.341Z,87.45
2024-02-28T20:35:07.906Z,87.18
2024-02-28T20:37:36.427Z,86.82
2024-02-28T20:40:07.466Z,86.14
2024-02-28T20:42:36.892Z,85.88
2024-02-28T20:45:06.905Z,86.11
2024-02-28T20:47:35.160Z,86.38
2024-02-28T20:50:06.217Z,86.50
2024-02-28T20:52:35.127Z,87.02
2024-02-28T20:55:05.099Z,87.54
2024-02-28T20:57:33.621Z,87.21
2024-02-28T21:00:02.371Z,87.10
2024-02-28T21:02:31.268Z,86.75
2024-02-28T21:05:01.393Z,86.02
2024-02-28T21:07:41.122Z,86.59
2024-02-28T21:10:16.780Z,86.45
2024-02-28T21:12:44.991Z,86.79
2024-02-28T21:15:13.217Z,87.37
2024-02-28T21:17:41.915Z,87.17
2024-02-28T21:20:10.499Z,86.86
2024-02-28T21:22:40.854Z,87.91
2024-02-28T21:25:09.343Z,87.74
2024-02-28T21:27:37.834Z,88.86
2024-02-28T21:30:07.632Z,88.14
2024-02-28T21:32:40.380Z,88.48
2024-02-28T21:35:11.779Z,88.61
2024-02-28T21:37:41.118Z,88.28
2024-02-28T21:40:10.249Z,87.97
2024-02-28T21:42:39.284Z,87.55
2024-02-28T21:45:08.162Z,87.48
2024-02-28T21:47:36.622Z,87.38
2024-02-28T21:50:07.146Z,87.76
2024-02-28T21:52:35.386Z,87.45
2024-02-28T21:55:08.358Z,87.65
2024-02-28T21:57:36.730Z,88.24
2024-02-28T22:00:05.507Z,89.08
2024-02-28T22:02:37.507Z,88.84
2024-02-28T22:05:06.180Z,87.70
2024-02-28T22:07:34.703Z,86.66
2024-02-28T22:10:03.326Z,86.94
2024-02-28T22:12:31.609Z,87.79
2024-02-28T22:14:59.772Z,88.23
2024-02-28T22:17:28.033Z,87.40
2024-02-28T22:19:56.246Z,88.70
2024-02-28T22:22:24.371Z,88.28
2024-02-28T22:24:52.588Z,89.19
2024-02-28T22:27:20.889Z,88.54
2024-02-28T22:29:49.484Z,88.74
2024-02-28T22:32:17.755Z,89.87
2024-02-28T22:34:45.931Z,89.59
2024-02-28T22:37:14.574Z,89.71
2024-02-28T22:39:42.821Z,90.11
2024-02-28T22:42:11.083Z,90.03
2024-02-28T22:44:39.299Z,89.13
2024-02-28T22:47:07.522Z,89.68
2024-02-28T22:49:35.753Z,91.27
2024-02-28T22:52:04.378Z,90.38
2024-02-28T22:54:32.823Z,89.98
2024-02-28T22:57:01.207Z,89.18
2024-02-28T22:59:30.194Z,88.35
2024-02-28T23:01:58.569Z,89.05
2024-02-28T23:04:26.941Z,89.06
2024-02-28T23:06:56.755Z,88.69
2024-02-28T23:09:25.169Z,88.41
2024-02-28T23:11:53.328Z,88.81
2024-02-28T23:14:21.548Z,88.56
2024-02-28T23:16:49.698Z,88.59
2024-02-28T23:19:17.836Z,89.42
2024-02-28T23:21:47.409Z,90.29
2024-02-28T23:24:15.994Z,90.32
2024-02-28T23:26:44.205Z,90.01
2024-02-28T23:29:12.339Z,89.90
2024-02-28T23:31:40.583Z,89.17
2024-02-28T23:34:09.415Z,88.50
2024-02-28T23:36:37.801Z,88.13
2024-02-28T23:39:05.950Z,88.61
2024-02-28T23:41:34.783Z,89.23
2024-02-28T23:44:03.090Z,89.34
2024-02-28T23:46:31.318Z,90.39
2024-02-28T23:48:59.449Z,91.06
2024-02-28T23:51:27.670Z,91.24
2024-02-28T23:53:55.842Z,90.34
2024-02-28T23:56:23.997Z,89.63
2024-02-28T23:58:52.122Z,89.13
